createdAt,value
2018-11-07T00:00:34.261Z,126.40
2018-11-07T00:01:34.188Z,124.10
2018-11-07T00:02:34.146Z,129.50
2018-11-07T00:03:34.118Z,137.00
2018-11-07T00:04:34.091Z,166.00
2018-11-07T00:05:34.061Z,194.40
2018-11-07T00:06:34.031Z,201.90
2018-11-07T00:07:34.004Z,205.10
2018-11-07T00:08:34.110Z,198.10
2018-11-07T00:09:33.944Z,189.30
2018-11-07T00:10:33.915Z,183.40
2018-11-07T00:11:33.887Z,169.30
2018-11-07T00:12:33.858Z,168.20
2018-11-07T00:13:33.828Z,148.40
2018-11-07T00:14:33.804Z,152.00
2018-11-07T00:15:33.771Z,153.00
2018-11-07T00:16:33.743Z,147.90
2018-11-07T00:17:33.719Z,147.40
2018-11-07T00:18:33.686Z,154.70
2018-11-07T00:19:33.740Z,151.80
2018-11-07T00:20:33.628Z,146.40
2018-11-07T00:21:33.599Z,152.60
2018-11-07T00:22:33.568Z,155.30
2018-11-07T00:23:33.542Z,157.80
2018-11-07T00:24:33.515Z,157.10
2018-11-07T00:25:33.485Z,153.30
2018-11-07T00:26:33.591Z,154.80
2018-11-07T00:27:33.425Z,159.40
2018-11-07T00:28:33.396Z,166.80
2018-11-07T00:29:33.366Z,157.60
2018-11-07T00:30:33.338Z,161.70
2018-11-07T00:31:33.315Z,166.40
2018-11-07T00:32:33.290Z,168.30
2018-11-07T00:33:33.250Z,173.70
2018-11-07T00:34:33.221Z,169.60
2018-11-07T00:35:33.195Z,170.70
2018-11-07T00:36:33.172Z,161.70
2018-11-07T00:37:33.138Z,169.40
2018-11-07T00:38:33.110Z,169.70
2018-11-07T00:39:33.084Z,162.70
2018-11-07T00:40:33.049Z,162.90
2018-11-07T00:41:33.019Z,162.30
2018-11-07T00:42:32.991Z,165.60
2018-11-07T00:43:32.961Z,167.80
2018-11-07T00:44:32.934Z,159.10
2018-11-07T00:45:32.906Z,164.20
2018-11-07T00:46:32.883Z,165.50
2018-11-07T00:47:32.845Z,165.60
2018-11-07T00:48:32.816Z,164.20
2018-11-07T00:49:32.786Z,161.60
2018-11-07T00:50:32.766Z,166.30
2018-11-07T00:51:32.729Z,159.20
2018-11-07T00:52:32.702Z,160.10
2018-11-07T00:53:32.671Z,163.50
2018-11-07T00:54:32.653Z,161.50
2018-11-07T00:55:32.613Z,162.00
2018-11-07T00:56:32.597Z,157.90
2018-11-07T00:57:32.567Z,166.90
2018-11-07T00:58:32.722Z,165.60
2018-11-07T00:59:32.502Z,168.30
2018-11-07T01:00:32.507Z,157.20
2018-11-07T01:01:32.440Z,166.90
2018-11-07T01:02:32.410Z,171.10
2018-11-07T01:03:32.381Z,165.40
2018-11-07T01:04:32.352Z,179.70
2018-11-07T01:05:32.322Z,180.90
2018-11-07T01:06:32.295Z,182.70
2018-11-07T01:07:32.265Z,179.00
2018-11-07T01:08:32.242Z,175.50
2018-11-07T01:09:32.311Z,182.30
2018-11-07T01:10:32.180Z,180.10
2018-11-07T01:11:32.148Z,186.70
2018-11-07T01:12:32.122Z,185.30
2018-11-07T01:13:32.100Z,186.20
2018-11-07T01:14:32.067Z,173.60
2018-11-07T01:15:32.033Z,172.80
2018-11-07T01:16:32.029Z,175.80
2018-11-07T01:17:31.974Z,176.60
2018-11-07T01:18:31.945Z,189.10
2018-11-07T01:19:31.916Z,179.00
2018-11-07T01:20:31.887Z,173.00
2018-11-07T01:21:31.857Z,177.80
2018-11-07T01:22:31.829Z,182.10
2018-11-07T01:23:31.799Z,181.70
2018-11-07T01:24:31.772Z,179.90
2018-11-07T01:25:31.744Z,180.70
2018-11-07T01:26:31.721Z,191.10
2018-11-07T01:27:31.684Z,174.60
2018-11-07T01:28:31.654Z,180.50
2018-11-07T01:29:31.624Z,180.50
2018-11-07T01:30:31.598Z,176.70
2018-11-07T01:31:31.568Z,191.50
2018-11-07T01:32:31.538Z,179.70
2018-11-07T01:33:31.508Z,177.30
2018-11-07T01:34:31.479Z,179.70
2018-11-07T01:35:31.457Z,176.90
2018-11-07T01:36:31.423Z,173.70
2018-11-07T01:37:31.393Z,179.40
2018-11-07T01:38:31.369Z,178.90
2018-11-07T01:39:31.334Z,179.70
2018-11-07T01:40:31.305Z,184.70
2018-11-07T01:41:31.278Z,178.30
2018-11-07T01:42:31.249Z,181.30
2018-11-07T01:43:31.218Z,187.40
2018-11-07T01:44:31.339Z,195.40
2018-11-07T01:45:31.159Z,190.50
2018-11-07T01:46:31.130Z,185.80
2018-11-07T01:47:31.100Z,188.50
2018-11-07T01:48:31.090Z,191.10
2018-11-07T01:49:31.060Z,207.90
2018-11-07T01:50:31.013Z,191.90
2018-11-07T01:51:30.984Z,189.80
2018-11-07T01:52:30.954Z,208.30
2018-11-07T01:53:30.925Z,206.90
2018-11-07T01:54:30.898Z,192.60
2018-11-07T01:55:30.867Z,210.50
2018-11-07T01:56:30.838Z,205.40
2018-11-07T01:57:30.810Z,223.60
2018-11-07T01:58:30.784Z,218.50
2018-11-07T01:59:30.754Z,215.50
2018-11-07T02:00:30.723Z,214.00
2018-11-07T02:01:30.691Z,234.20
2018-11-07T02:02:30.703Z,231.10
2018-11-07T02:03:30.633Z,240.20
2018-11-07T02:04:30.607Z,238.30
2018-11-07T02:05:30.586Z,236.70
2018-11-07T02:06:30.546Z,247.20
2018-11-07T02:07:30.517Z,254.40
2018-11-07T02:08:30.488Z,241.90
2018-11-07T02:09:30.469Z,237.00
2018-11-07T02:10:30.430Z,238.30
2018-11-07T02:11:30.404Z,239.90
2018-11-07T02:12:30.373Z,235.40
2018-11-07T02:13:30.342Z,227.50
2018-11-07T02:14:30.315Z,225.20
2018-11-07T02:15:30.283Z,233.60
2018-11-07T02:16:30.262Z,239.60
2018-11-07T02:17:30.225Z,238.00
2018-11-07T02:18:30.203Z,229.10
2018-11-07T02:19:30.317Z,215.90
2018-11-07T02:20:30.137Z,230.40
2018-11-07T02:21:30.108Z,237.90
2018-11-07T02:22:30.079Z,243.10
2018-11-07T02:23:30.050Z,234.80
2018-11-07T02:24:30.022Z,233.40
2018-11-07T02:25:29.991Z,243.70
2018-11-07T02:26:30.025Z,228.30
2018-11-07T02:27:29.933Z,224.90
2018-11-07T02:28:29.907Z,239.10
2018-11-07T02:29:29.873Z,236.30
2018-11-07T02:30:29.855Z,241.00
2018-11-07T02:31:29.816Z,237.80
2018-11-07T02:32:29.797Z,238.30
2018-11-07T02:33:29.758Z,245.10
2018-11-07T02:34:29.745Z,258.00
2018-11-07T02:35:29.706Z,254.20
2018-11-07T02:36:29.671Z,258.40
2018-11-07T02:37:29.640Z,259.60
2018-11-07T02:38:29.611Z,250.20
2018-11-07T02:39:29.582Z,251.20
2018-11-07T02:40:29.553Z,240.60
2018-11-07T02:41:29.523Z,271.00
2018-11-07T02:42:29.494Z,263.90
2018-11-07T02:43:29.465Z,276.60
2018-11-07T02:44:29.437Z,263.80
2018-11-07T02:45:29.405Z,279.90
2018-11-07T02:46:29.382Z,287.70
2018-11-07T02:49:35.991Z,275.40
2018-11-07T02:50:35.759Z,267.10
2018-11-07T02:51:35.729Z,263.20
2018-11-07T02:52:35.700Z,265.20
2018-11-07T02:53:35.799Z,265.60
2018-11-07T02:54:35.641Z,259.20
2018-11-07T02:55:35.611Z,271.20
2018-11-07T02:56:35.591Z,278.40
2018-11-07T02:57:35.554Z,271.50
2018-11-07T02:58:35.523Z,268.00
2018-11-07T02:59:35.493Z,289.40
2018-11-07T03:00:35.464Z,290.40
2018-11-07T03:01:35.438Z,287.40
2018-11-07T03:02:35.403Z,296.10
2018-11-07T03:03:35.375Z,296.50
2018-11-07T03:04:35.345Z,280.70
2018-11-07T03:05:35.316Z,306.20
2018-11-07T03:06:35.289Z,295.90
2018-11-07T03:07:35.261Z,297.70
2018-11-07T03:08:35.228Z,301.90
2018-11-07T03:09:35.199Z,292.70
2018-11-07T03:10:35.250Z,302.70
2018-11-07T03:11:35.139Z,314.50
2018-11-07T03:12:35.111Z,298.80
2018-11-07T03:13:35.081Z,291.10
2018-11-07T03:14:35.051Z,298.50
2018-11-07T03:15:35.021Z,316.40
2018-11-07T03:16:35.000Z,310.70
2018-11-07T03:17:34.963Z,321.30
2018-11-07T03:18:34.936Z,322.00
2018-11-07T03:19:34.903Z,329.00
2018-11-07T03:20:34.873Z,307.00
2018-11-07T03:21:34.845Z,326.60
2018-11-07T03:22:34.814Z,329.50
2018-11-07T03:23:34.787Z,321.50
2018-11-07T03:24:34.918Z,322.40
2018-11-07T03:25:34.726Z,329.80
2018-11-07T03:26:34.698Z,306.10
2018-11-07T03:27:34.670Z,328.10
2018-11-07T03:28:34.655Z,319.80
2018-11-07T03:29:34.610Z,319.00
2018-11-07T03:30:34.580Z,344.50
2018-11-07T03:31:34.549Z,330.70
2018-11-07T03:32:34.521Z,325.90
2018-11-07T03:33:34.496Z,282.80
2018-11-07T03:34:34.462Z,310.80
2018-11-07T03:35:34.436Z,316.60
2018-11-07T03:36:34.403Z,309.70
2018-11-07T03:37:34.374Z,324.40
2018-11-07T03:38:34.344Z,319.10
2018-11-07T03:39:34.315Z,322.60
2018-11-07T03:40:34.285Z,311.40
2018-11-07T03:41:34.255Z,308.90
2018-11-07T03:42:34.224Z,337.00
2018-11-07T03:43:34.204Z,328.30
2018-11-07T03:44:34.170Z,335.50
2018-11-07T03:45:34.138Z,381.70
2018-11-07T03:46:34.107Z,401.30
2018-11-07T03:47:34.082Z,406.70
2018-11-07T03:48:34.049Z,400.30
2018-11-07T03:49:34.018Z,406.00
2018-11-07T03:50:33.989Z,396.50
2018-11-07T03:51:33.960Z,407.80
2018-11-07T03:52:33.932Z,394.70
2018-11-07T03:53:33.905Z,367.80
2018-11-07T03:54:33.871Z,340.90
2018-11-07T03:55:33.842Z,357.40
2018-11-07T03:56:33.815Z,344.00
2018-11-07T03:57:33.787Z,344.00
2018-11-07T03:58:33.753Z,344.60
2018-11-07T03:59:33.727Z,347.10
2018-11-07T04:00:33.696Z,349.30
2018-11-07T04:01:33.665Z,355.40
2018-11-07T04:02:33.636Z,357.20
2018-11-07T04:03:33.606Z,360.70
2018-11-07T04:04:33.633Z,364.40
2018-11-07T04:05:33.550Z,365.20
2018-11-07T04:06:33.520Z,343.90
2018-11-07T04:07:33.486Z,353.40
2018-11-07T04:08:33.461Z,373.00
2018-11-07T04:09:33.438Z,355.10
2018-11-07T04:10:33.400Z,391.30
2018-11-07T04:11:33.370Z,391.10
2018-11-07T04:12:33.345Z,364.60
2018-11-07T04:13:33.311Z,409.10
2018-11-07T04:14:33.284Z,419.30
2018-11-07T04:15:33.253Z,432.40
2018-11-07T04:16:33.222Z,423.10
2018-11-07T04:17:33.193Z,389.50
2018-11-07T04:18:33.163Z,445.10
2018-11-07T04:19:33.134Z,472.70
2018-11-07T04:20:33.103Z,453.10
2018-11-07T04:21:33.076Z,559.20
2018-11-07T04:22:33.045Z,641.30
2018-11-07T04:23:33.018Z,594.40
2018-11-07T04:24:32.990Z,943.70
2018-11-07T04:25:32.958Z,1511.50
2018-11-07T04:26:32.929Z,1364.80
2018-11-07T04:27:32.904Z,1991.40
2018-11-07T04:28:33.027Z,1089.80
2018-11-07T04:29:32.840Z,1571.20
2018-11-07T04:30:32.810Z,1508.40
2018-11-07T04:31:32.781Z,800.00
2018-11-07T04:32:32.752Z,1992.90
2018-11-07T04:33:32.722Z,1298.30
2018-11-07T04:34:32.692Z,945.70
2018-11-07T04:35:32.663Z,1505.60
2018-11-07T04:36:32.647Z,1234.00
2018-11-07T04:37:32.632Z,1052.50
2018-11-07T04:38:32.575Z,1057.20
2018-11-07T04:39:32.571Z,854.20
2018-11-07T04:40:32.516Z,775.90
2018-11-07T04:41:32.487Z,1067.10
2018-11-07T04:42:32.456Z,978.30
2018-11-07T04:43:32.427Z,1275.90
2018-11-07T04:44:32.398Z,990.80
2018-11-07T04:45:32.369Z,889.80
2018-11-07T04:46:32.339Z,1058.50
2018-11-07T04:47:32.311Z,873.70
2018-11-07T04:48:32.280Z,831.30
2018-11-07T04:49:32.250Z,1208.30
2018-11-07T04:50:32.220Z,845.70
2018-11-07T04:51:32.192Z,1039.80
2018-11-07T04:52:32.163Z,1430.10
2018-11-07T04:53:32.137Z,898.00
2018-11-07T04:54:32.103Z,1828.90
2018-11-07T04:55:32.078Z,1445.10
2018-11-07T04:56:32.048Z,1028.90
2018-11-07T04:57:32.017Z,846.60
2018-11-07T04:58:32.028Z,730.20
2018-11-07T04:59:31.962Z,712.20
2018-11-07T05:00:31.931Z,1321.80
2018-11-07T05:01:31.899Z,906.60
2018-11-07T05:02:31.871Z,662.60
2018-11-07T05:03:31.839Z,1135.30
2018-11-07T05:04:31.812Z,619.50
2018-11-07T05:05:31.787Z,1729.40
2018-11-07T05:06:31.755Z,1165.20
2018-11-07T05:07:31.722Z,744.60
2018-11-07T05:08:31.753Z,643.50
2018-11-07T05:09:31.668Z,842.80
2018-11-07T05:10:31.639Z,1290.30
2018-11-07T05:11:31.608Z,1351.30
2018-11-07T05:12:31.577Z,1484.10
2018-11-07T05:13:31.546Z,1082.70
2018-11-07T05:14:31.520Z,1019.20
2018-11-07T05:15:31.490Z,844.00
2018-11-07T05:16:31.461Z,1294.80
2018-11-07T05:17:31.428Z,980.60
2018-11-07T05:18:31.398Z,690.80
2018-11-07T05:19:31.426Z,779.50
2018-11-07T05:20:31.340Z,945.60
2018-11-07T05:21:31.315Z,1032.60
2018-11-07T05:22:31.280Z,587.90
2018-11-07T05:23:31.256Z,902.80
2018-11-07T05:24:31.222Z,1076.70
2018-11-07T05:25:31.193Z,1055.40
2018-11-07T05:26:31.162Z,772.60
2018-11-07T05:27:31.135Z,943.50
2018-11-07T05:28:31.104Z,643.20
2018-11-07T05:29:31.084Z,1022.70
2018-11-07T05:30:31.045Z,644.50
2018-11-07T05:31:31.016Z,1237.40
2018-11-07T05:32:30.987Z,838.90
2018-11-07T05:33:30.965Z,1652.30
2018-11-07T05:34:30.928Z,1411.50
2018-11-07T05:35:30.899Z,1288.80
2018-11-07T05:36:30.869Z,1928.90
2018-11-07T05:37:30.846Z,1015.00
2018-11-07T05:38:30.813Z,1531.20
2018-11-07T05:39:30.781Z,831.80
2018-11-07T05:40:30.752Z,1098.70
2018-11-07T05:41:30.723Z,972.80
2018-11-07T05:42:30.696Z,1144.50
2018-11-07T05:43:30.665Z,673.70
2018-11-07T05:44:30.634Z,1016.00
2018-11-07T05:45:30.608Z,746.80
2018-11-07T05:46:30.577Z,1382.70
2018-11-07T05:47:30.546Z,971.80
2018-11-07T05:48:30.517Z,814.30
2018-11-07T05:49:30.488Z,1070.40
2018-11-07T05:50:30.457Z,1083.60
2018-11-07T05:51:30.429Z,1155.20
2018-11-07T05:52:30.402Z,988.10
2018-11-07T05:53:30.371Z,732.60
2018-11-07T05:54:30.342Z,942.40
2018-11-07T05:55:30.312Z,698.50
2018-11-07T05:56:30.283Z,793.20
2018-11-07T05:57:30.254Z,759.40
2018-11-07T05:58:30.223Z,640.20
2018-11-07T05:59:30.194Z,789.30
2018-11-07T06:00:30.168Z,1426.30
2018-11-07T06:01:30.135Z,880.40
2018-11-07T06:02:30.110Z,785.30
2018-11-07T06:03:30.085Z,1336.90
2018-11-07T06:04:30.055Z,644.60
2018-11-07T06:05:30.019Z,701.00
2018-11-07T06:06:29.989Z,1621.20
2018-11-07T06:07:30.809Z,1436.50
2018-11-07T06:08:29.929Z,740.70
2018-11-07T06:09:29.902Z,806.50
2018-11-07T06:10:29.872Z,980.60
2018-11-07T06:11:29.844Z,593.00
2018-11-07T06:12:29.813Z,1087.70
2018-11-07T06:13:29.789Z,691.50
2018-11-07T06:14:29.753Z,1581.50
2018-11-07T06:15:29.724Z,1130.70
2018-11-07T06:16:29.700Z,1323.70
2018-11-07T06:17:29.669Z,924.10
2018-11-07T06:18:29.635Z,837.40
2018-11-07T06:19:29.606Z,742.80
2018-11-07T06:20:29.577Z,743.40
2018-11-07T06:21:29.548Z,1764.90
2018-11-07T06:22:29.518Z,1574.90
2018-11-07T06:23:29.489Z,1566.40
2018-11-07T06:24:29.538Z,1684.70
2018-11-07T06:25:29.431Z,1445.70
2018-11-07T06:26:29.400Z,1654.20
2018-11-07T06:27:29.371Z,1385.00
2018-11-07T06:28:29.341Z,1519.10
2018-11-07T06:29:29.315Z,1730.00
2018-11-07T06:30:29.282Z,1203.90
2018-11-07T06:31:29.252Z,1091.50
2018-11-07T06:32:29.235Z,1036.50
2018-11-07T06:33:29.198Z,1009.00
2018-11-07T06:34:29.180Z,561.10
2018-11-07T06:35:29.145Z,1222.10
2018-11-07T06:36:29.105Z,566.10
2018-11-07T06:37:29.077Z,1252.40
2018-11-07T06:38:29.046Z,851.60
2018-11-07T06:39:29.018Z,998.60
2018-11-07T06:40:28.987Z,964.20
2018-11-07T06:41:28.957Z,1125.00
2018-11-07T06:42:28.927Z,1246.70
2018-11-07T06:43:28.907Z,1283.10
2018-11-07T06:44:28.874Z,1028.30
2018-11-07T06:45:28.840Z,441.70
2018-11-07T06:46:28.809Z,767.50
2018-11-07T06:47:28.783Z,1324.90
2018-11-07T06:48:28.751Z,1166.70
2018-11-07T06:49:28.722Z,821.20
2018-11-07T06:50:28.691Z,1020.50
2018-11-07T06:51:28.671Z,1032.30
2018-11-07T06:52:28.632Z,1039.80
2018-11-07T06:53:28.602Z,1575.60
2018-11-07T06:54:28.577Z,869.40
2018-11-07T06:55:28.543Z,1122.20
2018-11-07T06:56:28.516Z,1657.50
2018-11-07T06:57:28.489Z,1478.70
2018-11-07T06:58:28.454Z,1064.80
2018-11-07T06:59:28.429Z,700.90
2018-11-07T07:00:28.395Z,1474.80
2018-11-07T07:01:28.436Z,1211.90
2018-11-07T07:02:28.334Z,1176.10
2018-11-07T07:03:28.305Z,1138.60
2018-11-07T07:04:28.276Z,1069.90
2018-11-07T07:05:28.247Z,1280.40
2018-11-07T07:06:28.217Z,984.70
2018-11-07T07:07:28.187Z,806.00
2018-11-07T07:08:28.158Z,850.60
2018-11-07T07:09:28.128Z,915.10
2018-11-07T07:10:28.099Z,1404.70
2018-11-07T07:11:28.068Z,1246.90
2018-11-07T07:12:28.039Z,1339.20
2018-11-07T07:13:28.010Z,1336.20
2018-11-07T07:14:27.988Z,1468.00
2018-11-07T07:15:27.951Z,1663.30
2018-11-07T07:16:27.921Z,1288.10
2018-11-07T07:17:27.923Z,1287.10
2018-11-07T07:18:27.939Z,1189.90
2018-11-07T07:19:27.833Z,884.80
2018-11-07T07:20:27.804Z,641.20
2018-11-07T07:21:27.773Z,992.60
2018-11-07T07:22:27.744Z,468.00
2018-11-07T07:23:27.714Z,967.50
2018-11-07T07:24:27.687Z,813.90
2018-11-07T07:25:27.685Z,561.10
2018-11-07T07:26:27.626Z,700.30
2018-11-07T07:27:27.596Z,700.70
2018-11-07T07:28:27.571Z,451.30
2018-11-07T07:29:27.538Z,380.20
2018-11-07T07:30:27.571Z,490.10
2018-11-07T07:31:27.479Z,718.10
2018-11-07T07:32:27.449Z,495.60
2018-11-07T07:33:27.480Z,495.10
2018-11-07T07:34:27.391Z,644.90
2018-11-07T07:35:27.361Z,521.70
2018-11-07T07:36:27.332Z,501.20
2018-11-07T07:37:27.303Z,732.90
2018-11-07T07:38:27.280Z,475.50
2018-11-07T07:39:27.246Z,1272.70
2018-11-07T07:40:27.215Z,722.60
2018-11-07T07:41:27.190Z,1053.90
2018-11-07T07:42:27.156Z,642.90
2018-11-07T07:43:27.126Z,548.30
2018-11-07T07:44:27.098Z,527.70
2018-11-07T07:45:27.089Z,651.80
2018-11-07T07:46:27.038Z,756.40
2018-11-07T07:47:27.012Z,1305.40
2018-11-07T07:48:26.980Z,946.60
2018-11-07T07:49:27.058Z,731.00
2018-11-07T07:50:26.931Z,536.30
2018-11-07T07:51:26.899Z,1032.90
2018-11-07T07:52:26.876Z,1324.30
2018-11-07T07:53:26.841Z,732.20
2018-11-07T07:54:26.809Z,585.50
2018-11-07T07:55:26.777Z,1483.70
2018-11-07T07:56:26.750Z,499.80
2018-11-07T07:57:26.723Z,509.40
2018-11-07T07:58:26.689Z,911.70
2018-11-07T07:59:26.665Z,479.10
2018-11-07T08:00:26.632Z,675.50
2018-11-07T08:01:26.603Z,592.00
2018-11-07T08:02:26.573Z,842.80
2018-11-07T08:03:26.544Z,499.10
2018-11-07T08:04:26.516Z,759.00
2018-11-07T08:05:26.488Z,1065.50
2018-11-07T08:06:26.458Z,585.10
2018-11-07T08:07:26.431Z,865.50
2018-11-07T08:08:26.401Z,808.50
2018-11-07T08:09:26.373Z,627.80
2018-11-07T08:10:26.352Z,746.00
2018-11-07T08:11:26.317Z,457.00
2018-11-07T08:12:26.286Z,927.40
2018-11-07T08:13:26.303Z,898.40
2018-11-07T08:14:26.228Z,811.80
2018-11-07T08:15:26.207Z,988.60
2018-11-07T08:16:26.171Z,498.70
2018-11-07T08:17:26.143Z,710.50
2018-11-07T08:18:26.115Z,520.80
2018-11-07T08:19:26.084Z,654.90
2018-11-07T08:20:26.057Z,1145.60
2018-11-07T08:21:26.073Z,770.50
2018-11-07T08:22:26.010Z,699.20
2018-11-07T08:23:25.970Z,865.00
2018-11-07T08:24:25.943Z,919.20
2018-11-07T08:25:25.915Z,673.50
2018-11-07T08:26:25.884Z,592.80
2018-11-07T08:27:25.864Z,324.10
2018-11-07T08:28:25.830Z,840.80
2018-11-07T08:29:25.806Z,815.80
2018-11-07T08:30:25.773Z,800.90
2018-11-07T08:31:25.745Z,474.10
2018-11-07T08:32:25.714Z,507.50
2018-11-07T08:33:25.685Z,376.20
2018-11-07T08:34:25.658Z,1296.70
2018-11-07T08:35:25.628Z,748.70
2018-11-07T08:36:25.602Z,760.80
2018-11-07T08:37:25.571Z,617.40
2018-11-07T08:38:25.544Z,455.60
2018-11-07T08:39:25.514Z,943.70
2018-11-07T08:40:25.486Z,369.90
2018-11-07T08:41:25.458Z,674.90
2018-11-07T08:42:25.541Z,757.60
2018-11-07T08:43:25.401Z,712.00
2018-11-07T08:44:25.376Z,879.90
2018-11-07T08:45:25.346Z,417.60
2018-11-07T08:46:25.319Z,642.00
2018-11-07T08:47:25.287Z,969.60
2018-11-07T08:48:25.263Z,704.00
2018-11-07T08:49:25.237Z,666.40
2018-11-07T08:50:25.203Z,731.80
2018-11-07T08:51:25.181Z,431.90
2018-11-07T08:52:25.148Z,379.20
2018-11-07T08:53:25.125Z,702.10
2018-11-07T08:54:25.091Z,401.50
2018-11-07T08:55:25.066Z,510.90
2018-11-07T08:56:25.036Z,307.30
2018-11-07T08:57:25.008Z,296.10
2018-11-07T08:58:24.992Z,904.80
2018-11-07T08:59:24.952Z,413.00
2018-11-07T09:00:24.935Z,414.70
2018-11-07T09:01:24.950Z,301.70
2018-11-07T09:02:24.872Z,369.30
2018-11-07T09:03:24.842Z,387.30
2018-11-07T09:04:24.814Z,327.40
2018-11-07T09:05:24.789Z,248.10
2018-11-07T09:06:24.763Z,259.30
2018-11-07T09:07:24.731Z,431.90
2018-11-07T09:08:24.707Z,219.60
2018-11-07T09:09:24.679Z,215.20
2018-11-07T09:10:24.655Z,385.60
2018-11-07T09:11:24.629Z,312.50
2018-11-07T09:12:24.596Z,190.60
2018-11-07T09:13:24.569Z,237.80
2018-11-07T09:14:24.591Z,228.10
2018-11-07T09:15:24.515Z,171.00
2018-11-07T09:16:24.496Z,158.30
2018-11-07T09:17:24.462Z,135.70
2018-11-07T09:18:24.435Z,110.00
2018-11-07T09:19:24.408Z,82.10
2018-11-07T09:20:24.387Z,80.40
2018-11-07T09:21:24.355Z,69.30
2018-11-07T09:22:24.329Z,67.90
2018-11-07T09:23:24.303Z,60.20
2018-11-07T09:24:24.379Z,49.20
2018-11-07T09:25:24.251Z,45.70
2018-11-07T09:26:24.241Z,47.70
2018-11-07T09:27:24.200Z,58.10
2018-11-07T09:28:24.174Z,60.00
2018-11-07T09:29:24.202Z,57.30
2018-11-07T09:30:24.123Z,52.40
2018-11-07T09:31:24.097Z,54.80
2018-11-07T09:32:24.073Z,50.90
2018-11-07T09:33:24.049Z,49.50
2018-11-07T09:34:24.038Z,55.60
2018-11-07T09:35:23.997Z,50.30
2018-11-07T09:36:23.972Z,49.40
2018-11-07T09:37:23.946Z,45.80
2018-11-07T09:38:23.922Z,49.80
2018-11-07T09:39:23.913Z,45.90
2018-11-07T09:40:23.873Z,43.60
2018-11-07T09:41:23.851Z,55.10
2018-11-07T09:42:23.825Z,53.40
2018-11-07T09:43:23.804Z,50.30
2018-11-07T09:44:23.775Z,50.30
2018-11-07T09:45:23.752Z,53.70
2018-11-07T09:46:23.727Z,47.60
2018-11-07T09:48:48.206Z,44.90
2018-11-07T09:49:47.981Z,40.70
2018-11-07T09:50:47.953Z,42.10
2018-11-07T09:51:47.931Z,41.50
2018-11-07T09:52:47.907Z,40.30
2018-11-07T09:53:47.920Z,41.00
2018-11-07T09:54:47.860Z,43.90
2018-11-07T09:55:47.835Z,40.60
2018-11-07T09:56:47.811Z,40.00
2018-11-07T09:57:47.786Z,39.80
2018-11-07T09:58:47.762Z,36.70
2018-11-07T09:59:47.737Z,40.70
2018-11-07T10:00:47.712Z,49.10
2018-11-07T10:01:47.688Z,39.40
2018-11-07T10:02:47.675Z,43.60
2018-11-07T10:03:47.642Z,38.80
2018-11-07T10:04:47.616Z,41.00
2018-11-07T10:05:47.596Z,40.50
2018-11-07T10:06:47.568Z,46.30
2018-11-07T10:07:47.547Z,45.70
2018-11-07T10:08:47.518Z,45.30
2018-11-07T10:09:47.494Z,47.50
2018-11-07T10:10:47.469Z,41.30
2018-11-07T10:11:47.444Z,39.10
2018-11-07T10:12:47.440Z,35.00
2018-11-07T10:13:47.395Z,36.90
2018-11-07T10:14:47.369Z,39.20
2018-11-07T10:15:47.346Z,35.60
2018-11-07T10:16:47.328Z,38.60
2018-11-07T10:17:47.301Z,38.00
2018-11-07T10:18:47.277Z,35.50
2018-11-07T10:19:47.252Z,35.60
2018-11-07T10:20:47.225Z,35.50
2018-11-07T10:21:47.196Z,35.60
2018-11-07T10:22:47.172Z,37.30
2018-11-07T10:23:47.149Z,39.60
2018-11-07T10:24:47.124Z,40.70
2018-11-07T10:25:47.102Z,38.90
2018-11-07T10:26:47.159Z,38.90
2018-11-07T10:27:47.532Z,39.40
2018-11-07T10:28:47.338Z,36.90
2018-11-07T10:29:47.302Z,37.80
2018-11-07T10:30:46.989Z,35.00
2018-11-07T10:31:46.954Z,37.40
2018-11-07T10:32:46.932Z,35.10
2018-11-07T10:33:46.908Z,35.80
2018-11-07T10:34:46.888Z,35.00
2018-11-07T10:35:46.858Z,33.40
2018-11-07T10:36:46.834Z,34.60
2018-11-07T10:37:46.821Z,36.70
2018-11-07T10:38:46.937Z,36.20
2018-11-07T10:39:46.839Z,33.70
2018-11-07T10:40:46.739Z,34.30
2018-11-07T10:41:46.715Z,31.50
2018-11-07T10:42:46.691Z,33.90
2018-11-07T10:43:46.696Z,42.70
2018-11-07T10:44:46.648Z,34.90
2018-11-07T10:45:46.621Z,35.00
2018-11-07T10:46:46.598Z,35.50
2018-11-07T10:47:46.574Z,33.10
2018-11-07T10:48:46.550Z,33.30
2018-11-07T10:49:46.531Z,35.20
2018-11-07T10:50:46.508Z,35.50
2018-11-07T10:51:46.536Z,31.20
2018-11-07T10:52:46.456Z,33.80
2018-11-07T10:53:46.434Z,31.10
2018-11-07T10:54:46.418Z,31.90
2018-11-07T10:55:46.396Z,34.60
2018-11-07T10:56:46.365Z,35.50
2018-11-07T10:57:46.341Z,36.80
2018-11-07T10:58:46.317Z,34.30
2018-11-07T10:59:46.295Z,31.50
2018-11-07T11:00:46.274Z,31.70
2018-11-07T11:01:46.252Z,32.00
2018-11-07T11:02:46.231Z,30.00
2018-11-07T11:03:46.204Z,31.40
2018-11-07T11:04:46.185Z,30.40
2018-11-07T11:05:46.160Z,31.20
2018-11-07T11:06:46.136Z,30.10
2018-11-07T11:36:34.542Z,26.60
2018-11-07T11:37:34.312Z,27.80
2018-11-07T11:38:34.488Z,30.60
2018-11-07T11:39:34.465Z,31.20
2018-11-07T11:40:34.262Z,29.00
2018-11-07T11:41:34.216Z,29.90
2018-11-07T11:42:34.193Z,28.30
2018-11-07T11:43:34.170Z,28.70
2018-11-07T11:44:34.149Z,29.40
2018-11-07T11:45:34.148Z,28.20
2018-11-07T11:46:34.104Z,28.40
2018-11-07T11:47:34.082Z,28.80
2018-11-07T11:48:34.062Z,30.30
2018-11-07T11:49:34.042Z,28.20
2018-11-07T11:50:34.016Z,28.40
2018-11-07T11:51:33.995Z,31.00
2018-11-07T11:52:33.974Z,30.60
2018-11-07T11:53:33.953Z,26.10
2018-11-07T11:54:33.933Z,27.70
2018-11-07T11:55:33.909Z,30.50
2018-11-07T11:56:33.906Z,31.10
2018-11-07T11:57:33.871Z,27.20
2018-11-07T11:58:33.844Z,28.10
2018-11-07T11:59:34.226Z,32.40
2018-11-07T12:00:33.881Z,32.30
2018-11-07T12:03:40.444Z,27.40
2018-11-07T12:04:40.218Z,27.40
2018-11-07T12:05:40.197Z,29.70
2018-11-07T12:06:40.175Z,29.90
2018-11-07T12:07:40.154Z,31.10
2018-11-07T12:08:40.136Z,32.50
2018-11-07T12:11:04.832Z,27.60
2018-11-07T12:12:46.760Z,29.40
2018-11-07T12:13:46.529Z,29.50
2018-11-07T12:14:46.507Z,28.40
2018-11-07T12:15:46.493Z,36.80
2018-11-07T12:18:11.995Z,32.80
2018-11-07T12:19:10.956Z,34.70
2018-11-07T12:20:10.730Z,31.10
2018-11-07T12:21:10.934Z,31.20
2018-11-07T12:22:10.689Z,27.90
2018-11-07T12:23:10.665Z,31.10
2018-11-07T12:24:10.646Z,34.30
2018-11-07T12:25:10.623Z,26.60
2018-11-07T12:26:10.602Z,29.60
2018-11-07T12:27:10.790Z,27.00
2018-11-07T12:28:10.763Z,30.70
2018-11-07T12:29:10.539Z,29.30
2018-11-07T12:30:10.720Z,27.80
2018-11-07T12:31:10.495Z,31.40
2018-11-07T12:32:10.687Z,27.10
2018-11-07T12:33:10.453Z,28.00
2018-11-07T12:34:10.636Z,28.30
2018-11-07T12:35:10.412Z,28.60
2018-11-07T12:36:10.406Z,31.40
2018-11-07T12:37:10.572Z,24.00
2018-11-07T12:38:10.348Z,28.30
2018-11-07T12:39:10.335Z,27.40
2018-11-07T12:40:10.319Z,26.80
2018-11-07T12:41:10.307Z,30.00
2018-11-07T12:42:10.268Z,31.60
2018-11-07T12:43:10.452Z,27.90
2018-11-07T12:44:10.223Z,27.80
2018-11-07T12:45:10.408Z,29.20
2018-11-07T12:46:10.387Z,31.90
2018-11-07T12:47:10.362Z,28.80
2018-11-07T12:48:10.139Z,27.20
2018-11-07T12:49:10.319Z,27.60
2018-11-07T12:50:10.241Z,29.20
2018-11-07T12:51:10.076Z,29.40
2018-11-07T12:52:10.055Z,27.40
2018-11-07T12:53:10.043Z,31.00
2018-11-07T12:54:10.219Z,25.50
2018-11-07T12:55:10.205Z,30.80
2018-11-07T12:56:09.971Z,29.40
2018-11-07T12:57:10.064Z,28.00
2018-11-07T12:58:10.046Z,26.20
2018-11-07T12:59:09.911Z,28.40
2018-11-07T13:00:10.097Z,28.70
2018-11-07T13:01:09.866Z,26.60
2018-11-07T13:02:09.846Z,25.60
2018-11-07T13:03:09.827Z,25.60
2018-11-07T13:04:10.006Z,25.50
2018-11-07T13:05:09.984Z,24.10
2018-11-07T13:06:10.218Z,26.00
2018-11-07T13:07:09.942Z,26.70
2018-11-07T13:08:09.929Z,24.10
2018-11-07T13:09:09.900Z,24.10